createdAt,value
2019-03-25T00:00:46.211Z,11.87
2019-03-25T00:01:50.158Z,12.93
2019-03-25T00:02:53.787Z,12.73
2019-03-25T00:03:57.803Z,12.93
2019-03-25T00:05:01.437Z,14.80
2019-03-25T00:06:05.068Z,13.30
2019-03-25T00:07:08.741Z,12.60
2019-03-25T00:08:12.376Z,11.57
2019-03-25T00:09:16.012Z,14.93
2019-03-25T00:10:19.646Z,11.23
2019-03-25T00:11:23.389Z,11.47
2019-03-25T00:12:27.056Z,11.37
2019-03-25T00:13:30.755Z,11.67
2019-03-25T00:14:34.388Z,9.30
2019-03-25T00:15:38.323Z,11.27
2019-03-25T00:16:41.953Z,10.10
2019-03-25T00:17:45.620Z,14.30
2019-03-25T00:18:49.260Z,12.43
2019-03-25T00:19:52.837Z,14.10
2019-03-25T00:20:56.467Z,17.50
2019-03-25T00:22:01.056Z,13.00
2019-03-25T00:23:04.810Z,18.57
2019-03-25T00:24:08.447Z,12.47
2019-03-25T00:25:12.153Z,18.50
2019-03-25T00:26:15.787Z,11.60
2019-03-25T00:27:19.412Z,17.33
2019-03-25T00:28:23.087Z,18.63
2019-03-25T00:29:26.721Z,15.47
2019-03-25T00:30:30.361Z,18.73
2019-03-25T00:31:33.992Z,14.40
2019-03-25T00:32:37.628Z,20.80
2019-03-25T00:33:41.278Z,15.73
2019-03-25T00:34:44.914Z,17.63
2019-03-25T00:35:48.557Z,14.57
2019-03-25T00:36:52.194Z,14.43
2019-03-25T00:37:56.547Z,14.00
2019-03-25T00:39:00.267Z,16.83
2019-03-25T00:40:04.208Z,16.90
2019-03-25T00:41:07.936Z,11.67
2019-03-25T00:42:11.879Z,13.40
2019-03-25T00:43:15.876Z,14.17
2019-03-25T00:44:19.547Z,15.33
2019-03-25T00:45:23.253Z,15.13
2019-03-25T00:46:26.881Z,12.50
2019-03-25T00:47:30.514Z,13.13
2019-03-25T00:48:34.140Z,10.93
2019-03-25T00:49:37.829Z,11.43
2019-03-25T00:50:41.462Z,10.07
2019-03-25T00:51:45.095Z,11.90
2019-03-25T00:52:48.728Z,11.83
2019-03-25T00:53:52.421Z,11.53
2019-03-25T00:54:56.504Z,16.07
2019-03-25T00:56:00.136Z,12.47
2019-03-25T00:57:04.095Z,10.20
2019-03-25T00:58:07.728Z,12.87
2019-03-25T00:59:11.361Z,12.63
2019-03-25T01:00:15.200Z,12.40
2019-03-25T01:01:18.833Z,15.80
2019-03-25T01:02:22.535Z,13.23
2019-03-25T01:03:26.235Z,13.17
2019-03-25T01:04:29.900Z,11.50
2019-03-25T01:05:33.552Z,13.27
2019-03-25T01:06:37.187Z,14.50
2019-03-25T01:07:40.889Z,16.57
2019-03-25T01:08:44.826Z,17.13
2019-03-25T01:09:48.519Z,21.13
2019-03-25T01:10:52.195Z,20.97
2019-03-25T01:11:55.826Z,22.47
2019-03-25T01:12:59.532Z,14.43
2019-03-25T01:14:03.267Z,19.77
2019-03-25T01:15:08.098Z,16.77
2019-03-25T01:16:11.769Z,16.90
2019-03-25T01:17:15.440Z,17.53
2019-03-25T01:18:19.075Z,19.63
2019-03-25T01:19:23.319Z,15.67
2019-03-25T01:20:27.064Z,17.17
2019-03-25T01:21:30.802Z,20.77
2019-03-25T01:22:34.437Z,19.77
2019-03-25T01:23:38.069Z,17.47
2019-03-25T01:24:41.700Z,19.40
2019-03-25T01:25:45.331Z,24.47
2019-03-25T01:26:49.008Z,19.17
2019-03-25T01:27:52.639Z,12.70
2019-03-25T01:28:56.426Z,16.27
2019-03-25T01:30:00.015Z,14.73
2019-03-25T01:31:03.652Z,15.00
2019-03-25T01:32:07.321Z,15.33
2019-03-25T01:33:10.958Z,10.50
2019-03-25T01:34:14.589Z,13.37
2019-03-25T01:35:18.272Z,15.60
2019-03-25T01:36:21.854Z,13.37
2019-03-25T01:37:25.643Z,15.87
2019-03-25T01:38:29.275Z,11.60
2019-03-25T01:39:32.913Z,11.73
2019-03-25T01:40:36.552Z,14.67
2019-03-25T01:41:42.180Z,10.83
2019-03-25T01:42:45.924Z,15.63
2019-03-25T01:43:49.555Z,11.23
2019-03-25T01:44:53.176Z,13.17
2019-03-25T01:45:56.814Z,12.77
2019-03-25T01:47:00.593Z,10.87
2019-03-25T01:48:04.262Z,10.40
2019-03-25T01:49:07.897Z,13.07
2019-03-25T01:50:11.630Z,11.23
2019-03-25T01:51:15.656Z,12.53
2019-03-25T01:52:19.290Z,11.77
2019-03-25T01:53:22.964Z,10.23
2019-03-25T01:54:26.663Z,12.97
2019-03-25T01:55:30.212Z,11.37
2019-03-25T01:56:33.846Z,12.40
2019-03-25T01:57:37.471Z,12.57
2019-03-25T01:58:41.471Z,11.33
2019-03-25T01:59:45.105Z,12.80
2019-03-25T02:00:48.770Z,11.53
2019-03-25T02:01:52.390Z,13.80
2019-03-25T02:02:55.985Z,12.10
2019-03-25T02:03:59.654Z,13.43
2019-03-25T02:05:03.407Z,13.37
2019-03-25T02:06:07.135Z,13.80
2019-03-25T02:07:10.696Z,12.03
2019-03-25T02:08:14.711Z,11.67
2019-03-25T02:09:18.386Z,13.57
2019-03-25T02:10:22.020Z,11.57
2019-03-25T02:11:25.646Z,11.87
2019-03-25T02:12:29.345Z,14.47
2019-03-25T02:13:33.044Z,12.50
2019-03-25T02:14:36.731Z,12.00
2019-03-25T02:15:40.364Z,16.57
2019-03-25T02:16:44.002Z,11.77
2019-03-25T02:17:47.626Z,11.83
2019-03-25T02:18:51.246Z,12.30
2019-03-25T02:19:54.915Z,12.40
2019-03-25T02:20:58.942Z,9.83
2019-03-25T02:22:02.655Z,11.63
2019-03-25T02:23:06.608Z,12.27
2019-03-25T02:24:10.402Z,13.83
2019-03-25T02:25:24.790Z,12.53
2019-03-25T02:26:19.443Z,13.83
2019-03-25T02:27:23.079Z,13.93
2019-03-25T02:28:26.710Z,14.27
2019-03-25T02:29:30.347Z,17.30
2019-03-25T02:30:34.085Z,15.80
2019-03-25T02:31:37.792Z,16.03
2019-03-25T02:32:41.435Z,14.60
2019-03-25T02:33:45.014Z,16.07
2019-03-25T02:34:48.575Z,13.40
2019-03-25T02:35:52.259Z,15.87
2019-03-25T02:36:56.277Z,13.80
2019-03-25T02:37:59.942Z,13.13
2019-03-25T02:39:05.387Z,15.30
2019-03-25T02:40:09.015Z,16.77
2019-03-25T02:41:12.693Z,17.13
2019-03-25T02:42:16.326Z,14.00
2019-03-25T02:43:19.943Z,15.97
2019-03-25T02:44:23.582Z,10.33
2019-03-25T02:45:27.217Z,11.53
2019-03-25T02:46:30.884Z,11.87
2019-03-25T02:47:34.524Z,11.63
2019-03-25T02:48:38.148Z,13.87
2019-03-25T02:49:41.806Z,11.43
2019-03-25T02:50:45.430Z,13.03
2019-03-25T02:51:49.113Z,12.23
2019-03-25T02:52:52.742Z,12.27
2019-03-25T02:53:56.470Z,10.83
2019-03-25T02:55:00.648Z,11.93
2019-03-25T02:56:04.342Z,15.27
2019-03-25T02:57:07.985Z,10.93
2019-03-25T02:58:11.610Z,11.13
2019-03-25T02:59:15.254Z,10.20
2019-03-25T03:00:38.844Z,11.30
2019-03-25T03:01:42.719Z,9.07
2019-03-25T03:02:46.389Z,9.77
2019-03-25T03:03:50.001Z,12.43
2019-03-25T03:04:53.638Z,12.07
2019-03-25T03:05:57.596Z,9.00
2019-03-25T03:07:01.226Z,10.80
2019-03-25T03:08:05.205Z,9.80
2019-03-25T03:09:10.417Z,14.43
2019-03-25T03:10:14.154Z,15.60
2019-03-25T03:11:17.780Z,10.87
2019-03-25T03:12:21.447Z,12.60
2019-03-25T03:13:25.093Z,12.33
2019-03-25T03:14:28.717Z,10.97
2019-03-25T03:15:32.440Z,11.93
2019-03-25T03:16:36.067Z,12.13
2019-03-25T03:17:39.809Z,14.67
2019-03-25T03:18:43.458Z,16.90
2019-03-25T03:19:47.122Z,13.37
2019-03-25T03:20:50.727Z,15.57
2019-03-25T03:21:54.363Z,13.30
2019-03-25T03:22:58.329Z,14.40
2019-03-25T03:24:02.008Z,14.30
2019-03-25T03:25:06.093Z,12.83
2019-03-25T03:26:09.726Z,11.87
2019-03-25T03:27:13.356Z,10.50
2019-03-25T03:28:16.992Z,10.83
2019-03-25T03:29:20.665Z,11.90
2019-03-25T03:30:24.731Z,14.03
2019-03-25T03:31:28.403Z,10.33
2019-03-25T03:32:31.958Z,13.23
2019-03-25T03:33:35.637Z,13.90
2019-03-25T03:34:39.383Z,12.13
2019-03-25T03:35:46.343Z,13.53
2019-03-25T03:36:48.707Z,14.93
2019-03-25T03:37:52.339Z,13.97
2019-03-25T03:38:55.977Z,12.10
2019-03-25T03:39:59.653Z,13.87
2019-03-25T03:41:03.506Z,13.70
2019-03-25T03:42:07.467Z,14.93
2019-03-25T03:43:11.203Z,13.87
2019-03-25T03:44:14.809Z,11.27
2019-03-25T03:45:18.483Z,12.30
2019-03-25T03:46:22.122Z,13.43
2019-03-25T03:47:25.779Z,15.17
2019-03-25T03:48:29.392Z,13.13
2019-03-25T03:49:33.028Z,10.03
2019-03-25T03:50:37.056Z,14.50
2019-03-25T03:51:40.703Z,11.77
2019-03-25T03:52:45.040Z,13.40
2019-03-25T03:53:48.651Z,13.13
2019-03-25T03:54:52.916Z,15.67
2019-03-25T03:56:11.439Z,15.63
2019-03-25T03:57:02.161Z,14.70
2019-03-25T03:58:05.788Z,14.07
2019-03-25T03:59:09.629Z,15.30
2019-03-25T04:00:16.178Z,13.60
2019-03-25T04:01:19.855Z,16.70
2019-03-25T04:02:23.560Z,13.80
2019-03-25T04:03:27.146Z,13.37
2019-03-25T04:04:30.751Z,15.80
2019-03-25T04:05:34.380Z,17.10
2019-03-25T04:06:38.130Z,12.77
2019-03-25T04:07:41.778Z,11.20
2019-03-25T04:08:45.401Z,13.43
2019-03-25T04:09:49.324Z,12.40
2019-03-25T04:10:52.957Z,13.33
2019-03-25T04:11:56.641Z,16.37
2019-03-25T04:13:00.680Z,18.27
2019-03-25T04:14:04.303Z,14.60
2019-03-25T04:15:08.208Z,16.97
2019-03-25T04:16:11.851Z,18.83
2019-03-25T04:17:15.565Z,17.20
2019-03-25T04:18:19.237Z,20.63
2019-03-25T04:19:22.861Z,22.03
2019-03-25T04:20:26.606Z,21.90
2019-03-25T04:21:30.233Z,25.20
2019-03-25T04:22:33.872Z,21.77
2019-03-25T04:23:37.507Z,19.53
2019-03-25T04:24:41.142Z,19.63
2019-03-25T04:25:44.764Z,19.90
2019-03-25T04:26:48.395Z,18.03
2019-03-25T04:27:52.187Z,22.87
2019-03-25T04:28:55.814Z,14.50
2019-03-25T04:29:59.809Z,16.40
2019-03-25T04:31:03.545Z,15.70
2019-03-25T04:32:07.260Z,17.37
2019-03-25T04:33:11.029Z,18.80
2019-03-25T04:34:14.741Z,19.90
2019-03-25T04:35:18.387Z,19.70
2019-03-25T04:36:22.003Z,17.03
2019-03-25T04:37:25.726Z,16.50
2019-03-25T04:38:29.424Z,21.63
2019-03-25T04:39:33.048Z,24.57
2019-03-25T04:40:36.777Z,19.63
2019-03-25T04:41:40.429Z,22.93
2019-03-25T04:42:44.043Z,18.53
2019-03-25T04:43:47.727Z,22.00
2019-03-25T04:44:51.349Z,17.63
2019-03-25T04:45:54.983Z,19.27
2019-03-25T04:46:58.619Z,16.40
2019-03-25T04:48:02.255Z,16.67
2019-03-25T04:49:05.935Z,15.03
2019-03-25T04:50:09.862Z,19.83
2019-03-25T04:51:13.504Z,16.93
2019-03-25T04:52:17.070Z,16.23
2019-03-25T04:53:20.719Z,15.58
2019-03-25T04:54:24.401Z,16.67
2019-03-25T04:55:28.030Z,16.60
2019-03-25T04:56:39.537Z,20.10
2019-03-25T04:57:37.104Z,20.73
2019-03-25T04:58:40.811Z,15.10
2019-03-25T04:59:44.522Z,21.37
2019-03-25T05:00:48.176Z,16.80
2019-03-25T05:01:52.176Z,20.43
2019-03-25T05:02:56.729Z,23.27
2019-03-25T05:04:00.373Z,20.97
2019-03-25T05:05:04.072Z,19.27
2019-03-25T05:06:07.789Z,19.80
2019-03-25T05:07:11.379Z,21.70
2019-03-25T05:08:15.039Z,22.37
2019-03-25T05:09:18.669Z,25.35
2019-03-25T05:10:22.352Z,27.93
2019-03-25T05:11:30.530Z,22.20
2019-03-25T05:12:31.360Z,23.32
2019-03-25T05:13:35.010Z,20.95
2019-03-25T05:14:38.658Z,24.98
2019-03-25T05:15:42.706Z,23.22
2019-03-25T05:16:46.824Z,26.23
2019-03-25T05:17:50.466Z,35.33
2019-03-25T05:18:54.034Z,36.33
2019-03-25T05:19:57.670Z,27.98
2019-03-25T05:21:01.343Z,20.48
2019-03-25T05:22:04.984Z,24.23
2019-03-25T05:23:08.634Z,16.57
2019-03-25T05:24:12.276Z,16.52
2019-03-25T05:25:15.916Z,17.77
2019-03-25T05:26:19.562Z,20.55
2019-03-25T05:27:23.223Z,17.02
2019-03-25T05:28:26.862Z,20.90
2019-03-25T05:29:30.506Z,19.40
2019-03-25T05:30:34.239Z,17.07
2019-03-25T05:31:38.211Z,18.17
2019-03-25T05:32:42.215Z,19.30
2019-03-25T05:33:45.859Z,19.82
2019-03-25T05:34:49.429Z,24.27
2019-03-25T05:35:52.999Z,24.15
2019-03-25T05:36:56.695Z,28.47
2019-03-25T05:38:00.338Z,24.65
2019-03-25T05:39:05.655Z,20.00
2019-03-25T05:40:09.297Z,21.67
2019-03-25T05:41:12.799Z,17.42
2019-03-25T05:42:16.408Z,23.30
2019-03-25T05:43:21.200Z,19.50
2019-03-25T05:44:25.070Z,18.50
2019-03-25T05:45:33.298Z,18.47
2019-03-25T05:46:37.141Z,24.30
2019-03-25T05:47:40.880Z,17.27
2019-03-25T05:48:44.525Z,20.37
2019-03-25T05:49:48.173Z,19.33
2019-03-25T05:50:51.817Z,21.48
2019-03-25T05:51:55.465Z,18.70
2019-03-25T05:52:59.153Z,18.12
2019-03-25T05:54:02.868Z,23.35
2019-03-25T05:55:07.608Z,22.55
2019-03-25T05:56:11.252Z,26.25
2019-03-25T05:57:14.888Z,24.83
2019-03-25T05:58:18.603Z,20.45
2019-03-25T05:59:22.261Z,21.02
2019-03-25T06:00:27.552Z,21.85
2019-03-25T06:01:31.372Z,21.50
2019-03-25T06:02:35.018Z,25.72
2019-03-25T06:03:38.709Z,28.90
2019-03-25T06:04:42.354Z,28.92
2019-03-25T06:05:46.076Z,24.45
2019-03-25T06:06:52.052Z,29.48
2019-03-25T06:07:55.125Z,32.50
2019-03-25T06:08:58.775Z,47.45
2019-03-25T06:10:02.427Z,61.35
2019-03-25T06:11:06.109Z,64.03
2019-03-25T06:12:09.755Z,31.50
2019-03-25T06:13:13.743Z,23.00
2019-03-25T06:14:17.388Z,23.97
2019-03-25T06:15:21.038Z,19.40
2019-03-25T06:16:24.731Z,20.50
2019-03-25T06:17:28.378Z,20.27
2019-03-25T06:18:32.038Z,20.00
2019-03-25T06:19:35.661Z,26.17
2019-03-25T06:20:39.665Z,19.83
2019-03-25T06:21:43.344Z,22.53
2019-03-25T06:22:47.039Z,22.73
2019-03-25T06:23:50.660Z,20.87
2019-03-25T06:24:54.299Z,24.20
2019-03-25T06:25:57.945Z,50.67
2019-03-25T06:27:01.499Z,40.40
2019-03-25T06:28:05.179Z,30.70
2019-03-25T06:29:08.886Z,30.03
2019-03-25T06:30:12.818Z,36.67
2019-03-25T06:31:16.455Z,33.90
2019-03-25T06:32:20.102Z,25.00
2019-03-25T06:33:23.792Z,23.00
2019-03-25T06:34:27.437Z,32.50
2019-03-25T06:35:31.070Z,32.80
2019-03-25T06:36:34.728Z,23.90
2019-03-25T06:37:38.376Z,23.47
2019-03-25T06:38:42.041Z,21.70
2019-03-25T06:39:45.679Z,25.53
2019-03-25T06:40:49.407Z,23.03
2019-03-25T06:41:52.959Z,29.50
2019-03-25T06:42:56.603Z,28.90
2019-03-25T06:44:00.279Z,25.03
2019-03-25T06:45:05.436Z,24.93
2019-03-25T06:46:09.067Z,22.90
2019-03-25T06:47:12.802Z,25.03
2019-03-25T06:48:16.436Z,24.77
2019-03-25T06:49:20.074Z,20.00
2019-03-25T06:50:23.716Z,30.47
2019-03-25T06:51:27.345Z,25.63
2019-03-25T06:52:30.986Z,20.93
2019-03-25T06:53:34.621Z,22.83
2019-03-25T06:54:38.305Z,20.73
2019-03-25T06:55:41.980Z,26.10
2019-03-25T06:56:45.699Z,21.30
2019-03-25T06:57:49.328Z,23.00
2019-03-25T06:58:52.973Z,21.57
2019-03-25T06:59:56.654Z,29.80
2019-03-25T07:01:00.289Z,21.10
2019-03-25T07:02:03.924Z,22.73
2019-03-25T07:03:07.900Z,17.97
2019-03-25T07:04:11.538Z,21.03
2019-03-25T07:05:15.226Z,24.10
2019-03-25T07:06:18.868Z,22.33
2019-03-25T07:07:22.492Z,22.43
2019-03-25T07:08:26.142Z,22.83
2019-03-25T07:09:29.786Z,21.43
2019-03-25T07:10:35.174Z,20.03
2019-03-25T07:11:40.230Z,24.53
2019-03-25T07:12:43.864Z,22.80
2019-03-25T07:13:47.500Z,16.30
2019-03-25T07:14:51.325Z,25.90
2019-03-25T07:15:54.925Z,19.90
2019-03-25T07:16:58.562Z,25.43
2019-03-25T07:18:02.308Z,21.90
2019-03-25T07:19:05.953Z,26.10
2019-03-25T07:20:10.188Z,21.43
2019-03-25T07:21:13.866Z,29.43
2019-03-25T07:22:17.573Z,30.93
2019-03-25T07:23:21.216Z,24.13
2019-03-25T07:24:24.859Z,26.23
2019-03-25T07:25:28.426Z,22.43
2019-03-25T07:26:32.111Z,33.43
2019-03-25T07:27:37.061Z,22.97
2019-03-25T07:28:42.357Z,22.40
2019-03-25T07:29:45.997Z,23.70
2019-03-25T07:30:51.968Z,22.03
2019-03-25T07:31:55.665Z,25.43
2019-03-25T07:32:59.311Z,22.73
2019-03-25T07:34:02.949Z,28.50
2019-03-25T07:35:07.990Z,23.60
2019-03-25T07:36:11.631Z,22.20
2019-03-25T07:37:15.316Z,22.03
2019-03-25T07:38:19.151Z,23.97
2019-03-25T07:39:22.864Z,20.77
2019-03-25T07:40:26.504Z,20.73
2019-03-25T07:41:30.141Z,20.90
2019-03-25T07:42:33.935Z,17.57
2019-03-25T07:43:37.546Z,20.07
2019-03-25T07:44:45.981Z,17.47
2019-03-25T07:45:53.696Z,23.13
2019-03-25T07:47:03.602Z,21.30
2019-03-25T07:48:17.735Z,22.07
2019-03-25T07:49:27.279Z,23.17
2019-03-25T07:50:30.920Z,21.30
2019-03-25T07:51:36.136Z,19.17
2019-03-25T07:52:39.793Z,21.40
2019-03-25T07:53:43.480Z,16.33
2019-03-25T07:54:47.118Z,24.03
2019-03-25T07:55:50.794Z,25.47
2019-03-25T07:56:54.445Z,18.30
2019-03-25T07:58:01.900Z,17.07
2019-03-25T07:59:05.612Z,18.77
2019-03-25T08:00:14.721Z,17.67
2019-03-25T08:01:18.457Z,20.07
2019-03-25T08:02:22.264Z,18.40
2019-03-25T08:03:25.913Z,17.57
2019-03-25T08:04:32.385Z,23.13
2019-03-25T08:05:36.021Z,25.97
2019-03-25T08:06:39.656Z,17.57
2019-03-25T08:07:45.000Z,15.77
2019-03-25T08:08:48.616Z,15.87
2019-03-25T08:09:53.866Z,18.70
2019-03-25T08:10:57.406Z,16.43
2019-03-25T08:12:02.357Z,20.07
2019-03-25T08:13:06.303Z,17.40
2019-03-25T08:14:10.202Z,16.20
2019-03-25T08:15:13.981Z,22.53
2019-03-25T08:16:17.812Z,20.97
2019-03-25T08:17:21.507Z,17.03
2019-03-25T08:18:25.257Z,18.10
2019-03-25T08:19:28.935Z,16.90
2019-03-25T08:20:32.631Z,17.10
2019-03-25T08:21:36.268Z,14.57
2019-03-25T08:22:39.903Z,15.67
2019-03-25T08:23:43.511Z,18.20
2019-03-25T08:24:47.179Z,15.23
2019-03-25T08:25:51.356Z,16.90
2019-03-25T08:26:56.236Z,19.87
2019-03-25T08:28:00.625Z,18.07
2019-03-25T08:29:05.455Z,15.60
2019-03-25T08:30:09.591Z,16.33
2019-03-25T08:31:13.291Z,20.60
2019-03-25T08:32:16.933Z,19.10
2019-03-25T08:33:22.242Z,18.70
2019-03-25T08:34:25.872Z,17.10
2019-03-25T08:35:32.116Z,19.73
2019-03-25T08:36:35.916Z,16.83
2019-03-25T08:37:39.556Z,21.27
2019-03-25T08:38:43.189Z,16.53
2019-03-25T08:39:47.058Z,17.77
2019-03-25T08:40:50.931Z,14.80
2019-03-25T08:41:54.563Z,19.70
2019-03-25T08:42:58.209Z,16.83
2019-03-25T08:44:02.179Z,18.20
2019-03-25T08:45:06.615Z,16.43
2019-03-25T08:46:11.751Z,18.63
2019-03-25T08:47:16.559Z,15.47
2019-03-25T08:48:20.226Z,15.30
2019-03-25T08:49:23.882Z,16.70
2019-03-25T08:50:27.537Z,15.17
2019-03-25T08:51:32.451Z,16.17
2019-03-25T08:52:37.252Z,14.67
2019-03-25T08:53:40.923Z,17.07
2019-03-25T08:54:44.682Z,16.87
2019-03-25T08:55:48.303Z,17.47
2019-03-25T08:56:54.078Z,17.27
2019-03-25T08:57:57.642Z,13.97
2019-03-25T08:59:05.687Z,14.33
2019-03-25T09:00:15.732Z,12.03
2019-03-25T09:01:23.295Z,13.55
2019-03-25T09:02:31.212Z,18.23
2019-03-25T09:03:34.888Z,14.25
2019-03-25T09:04:39.798Z,13.68
2019-03-25T09:05:47.625Z,15.20
2019-03-25T09:06:53.695Z,15.75
2019-03-25T09:08:00.719Z,15.28
2019-03-25T09:09:07.773Z,17.32
2019-03-25T09:10:12.404Z,15.88
2019-03-25T09:11:18.556Z,10.93
2019-03-25T09:12:43.926Z,14.53
2019-03-25T09:13:47.616Z,14.43
2019-03-25T09:14:51.266Z,11.30
2019-03-25T09:15:54.943Z,14.85
2019-03-25T09:17:00.516Z,14.07
2019-03-25T09:18:04.159Z,14.50
2019-03-25T09:19:07.880Z,16.40
2019-03-25T09:20:12.210Z,10.78
2019-03-25T09:21:15.853Z,14.18
2019-03-25T09:22:19.487Z,16.52
2019-03-25T09:23:23.197Z,11.68
2019-03-25T09:24:26.876Z,17.98
2019-03-25T09:25:30.588Z,15.50
2019-03-25T09:26:34.227Z,9.28
2019-03-25T09:27:37.874Z,12.20
2019-03-25T09:28:41.580Z,9.53
2019-03-25T09:29:45.340Z,9.43
2019-03-25T09:30:55.022Z,10.65
2019-03-25T09:31:58.670Z,12.30
2019-03-25T09:33:02.320Z,13.83
2019-03-25T09:34:06.390Z,12.63
2019-03-25T09:35:10.321Z,9.85
2019-03-25T09:36:14.304Z,10.48
2019-03-25T09:37:17.936Z,8.38
2019-03-25T09:38:21.582Z,10.38
2019-03-25T09:39:25.144Z,11.33
2019-03-25T09:40:28.785Z,9.20
2019-03-25T09:41:32.435Z,9.43
2019-03-25T09:42:36.072Z,10.58
2019-03-25T09:43:39.733Z,10.88
2019-03-25T09:44:43.418Z,8.38
2019-03-25T09:45:47.093Z,12.78
2019-03-25T09:46:50.735Z,9.05
2019-03-25T09:47:54.365Z,11.08
2019-03-25T09:48:58.133Z,10.10
2019-03-25T09:50:01.778Z,12.13
2019-03-25T09:51:05.645Z,8.30
2019-03-25T09:52:09.279Z,11.15
2019-03-25T09:53:12.914Z,7.75
2019-03-25T09:54:16.566Z,10.65
2019-03-25T09:55:20.202Z,11.95
2019-03-25T09:56:23.999Z,8.70
2019-03-25T09:57:27.639Z,7.40
2019-03-25T09:58:36.354Z,10.72
2019-03-25T09:59:36.661Z,11.78
2019-03-25T10:00:40.300Z,11.20
2019-03-25T10:01:43.971Z,14.13
2019-03-25T10:02:47.697Z,11.10
2019-03-25T10:03:51.333Z,7.72
2019-03-25T10:04:54.965Z,8.15
2019-03-25T10:05:58.600Z,7.92
2019-03-25T10:07:02.474Z,10.53
2019-03-25T10:08:06.108Z,9.00
2019-03-25T10:09:10.708Z,7.85
2019-03-25T10:10:14.551Z,8.73
2019-03-25T10:11:18.629Z,7.37
2019-03-25T10:12:22.272Z,8.05
2019-03-25T10:13:25.900Z,7.87
2019-03-25T10:14:29.525Z,13.13
2019-03-25T10:15:33.160Z,14.45
2019-03-25T10:16:36.798Z,10.45
2019-03-25T10:17:40.508Z,8.98
2019-03-25T10:18:44.101Z,9.23
2019-03-25T10:19:47.740Z,10.20
2019-03-25T10:20:51.372Z,9.30
2019-03-25T10:21:55.078Z,8.50
2019-03-25T10:22:58.764Z,11.95
2019-03-25T10:24:02.518Z,11.73
2019-03-25T10:25:07.558Z,7.30
2019-03-25T10:26:11.254Z,7.58
2019-03-25T10:27:14.886Z,7.50
2019-03-25T10:28:18.558Z,11.75
2019-03-25T10:29:22.181Z,12.88
2019-03-25T10:30:26.446Z,6.65
2019-03-25T10:31:30.082Z,7.85
2019-03-25T10:32:33.719Z,11.28
2019-03-25T10:33:37.381Z,7.45
2019-03-25T10:34:41.009Z,8.28
2019-03-25T10:35:44.662Z,11.45
2019-03-25T10:36:48.296Z,6.67
2019-03-25T10:37:51.927Z,6.58
2019-03-25T10:38:55.607Z,8.35
2019-03-25T10:39:59.241Z,7.58
2019-03-25T10:41:02.946Z,10.95
2019-03-25T10:42:06.594Z,12.05
2019-03-25T10:43:10.831Z,10.25
2019-03-25T10:44:14.513Z,7.00
2019-03-25T10:45:18.149Z,7.80
2019-03-25T10:46:21.781Z,8.33
2019-03-25T10:47:25.414Z,7.55
2019-03-25T10:48:29.261Z,24.77
2019-03-25T10:49:33.295Z,7.83
2019-03-25T10:50:36.932Z,10.75
2019-03-25T10:51:40.569Z,8.90
2019-03-25T10:52:44.281Z,8.83
2019-03-25T10:53:47.953Z,8.95
2019-03-25T10:54:51.715Z,6.62
2019-03-25T10:55:55.396Z,10.05
2019-03-25T10:56:58.971Z,10.28
2019-03-25T10:58:02.693Z,10.60
2019-03-25T10:59:06.369Z,9.95
2019-03-25T11:00:11.981Z,7.30
2019-03-25T11:01:15.615Z,6.55
2019-03-25T11:02:19.251Z,7.83
2019-03-25T11:03:22.874Z,7.58
2019-03-25T11:04:26.564Z,13.08
2019-03-25T11:05:30.198Z,11.48
2019-03-25T11:06:33.844Z,7.42
2019-03-25T11:07:37.701Z,8.33
2019-03-25T11:08:41.408Z,11.15
2019-03-25T11:09:45.042Z,8.10
2019-03-25T11:10:48.674Z,7.55
2019-03-25T11:11:52.300Z,9.48
2019-03-25T11:12:55.936Z,11.40
2019-03-25T11:13:59.653Z,7.25
2019-03-25T11:15:04.324Z,9.80
2019-03-25T11:16:10.223Z,9.00
2019-03-25T11:17:13.414Z,7.87
2019-03-25T11:18:17.067Z,12.63
2019-03-25T11:19:20.700Z,8.40
2019-03-25T11:20:24.792Z,8.33
2019-03-25T11:21:28.423Z,11.12
2019-03-25T11:22:32.061Z,9.80
2019-03-25T11:23:35.686Z,6.65
2019-03-25T11:24:39.318Z,8.88
2019-03-25T11:25:43.501Z,8.38
2019-03-25T11:26:47.199Z,9.48
2019-03-25T11:27:54.397Z,8.05
2019-03-25T11:28:56.503Z,11.50
2019-03-25T11:30:00.298Z,9.35
2019-03-25T11:31:03.989Z,9.63
2019-03-25T11:32:07.956Z,7.65
2019-03-25T11:33:11.591Z,9.00
2019-03-25T11:34:15.230Z,10.00
2019-03-25T11:35:18.865Z,7.37
2019-03-25T11:36:22.393Z,9.83
2019-03-25T11:37:26.032Z,6.62
2019-03-25T11:38:29.668Z,8.43
2019-03-25T11:39:33.315Z,15.32
2019-03-25T11:40:36.940Z,8.05
2019-03-25T11:41:40.907Z,8.00
2019-03-25T11:42:44.551Z,13.95
2019-03-25T11:43:48.182Z,7.45
2019-03-25T11:44:51.810Z,8.33
2019-03-25T11:45:55.517Z,8.48
2019-03-25T11:46:59.198Z,7.83
2019-03-25T11:48:02.815Z,8.75
2019-03-25T11:49:06.455Z,9.65
2019-03-25T11:50:10.684Z,9.50
2019-03-25T11:51:14.315Z,7.90
2019-03-25T11:52:18.006Z,9.70
2019-03-25T11:53:21.649Z,11.03
2019-03-25T11:54:25.287Z,10.53
2019-03-25T11:55:29.000Z,7.45
2019-03-25T11:56:32.656Z,7.12
2019-03-25T11:57:36.338Z,8.25
2019-03-25T11:58:39.994Z,8.60
2019-03-25T11:59:43.630Z,11.57
2019-03-25T12:00:47.280Z,7.37
2019-03-25T12:01:51.283Z,8.98
2019-03-25T12:02:54.991Z,9.28
2019-03-25T12:03:58.621Z,8.60
2019-03-25T12:05:02.342Z,8.03
2019-03-25T12:06:05.986Z,10.93
2019-03-25T12:07:09.625Z,7.40
2019-03-25T12:08:13.303Z,9.15
2019-03-25T12:09:17.270Z,7.30
2019-03-25T12:10:20.907Z,6.28
2019-03-25T12:11:24.538Z,6.33
2019-03-25T12:12:28.211Z,7.47
2019-03-25T12:13:31.846Z,8.43
2019-03-25T12:14:35.579Z,9.10
2019-03-25T12:15:39.587Z,7.30
2019-03-25T12:16:43.226Z,9.40
2019-03-25T12:17:46.928Z,9.48
2019-03-25T12:18:50.561Z,7.25
2019-03-25T12:19:54.626Z,12.82
2019-03-25T12:20:58.248Z,7.03
2019-03-25T12:22:01.892Z,7.80
2019-03-25T12:23:05.527Z,12.75
2019-03-25T12:24:09.203Z,8.35
2019-03-25T12:25:12.833Z,9.88
2019-03-25T12:26:16.473Z,6.55
2019-03-25T12:27:20.146Z,6.55
2019-03-25T12:28:23.747Z,9.05
2019-03-25T12:29:30.462Z,9.88
2019-03-25T12:30:33.149Z,7.12
2019-03-25T12:31:36.784Z,11.75
2019-03-25T12:32:40.419Z,8.03
2019-03-25T12:33:44.066Z,8.05
2019-03-25T12:34:48.026Z,9.55
2019-03-25T12:35:51.849Z,8.85
2019-03-25T12:36:55.488Z,12.93
2019-03-25T12:37:59.128Z,8.20
2019-03-25T12:39:03.108Z,8.55
2019-03-25T12:40:08.033Z,10.80
2019-03-25T12:41:11.818Z,8.85
2019-03-25T12:42:15.460Z,9.88
2019-03-25T12:43:19.087Z,8.55
2019-03-25T12:44:22.720Z,9.13
2019-03-25T12:45:28.353Z,10.08
2019-03-25T12:46:31.753Z,7.58
2019-03-25T12:47:35.386Z,8.55
2019-03-25T12:48:39.029Z,8.83
2019-03-25T12:49:42.660Z,6.40
2019-03-25T12:50:46.331Z,8.75
2019-03-25T12:51:49.963Z,8.30
2019-03-25T12:52:53.604Z,12.50
2019-03-25T12:53:57.232Z,7.87
2019-03-25T12:55:00.872Z,12.37
2019-03-25T12:56:04.811Z,8.28
2019-03-25T12:57:08.456Z,14.07
2019-03-25T12:58:12.079Z,8.13
2019-03-25T12:59:15.710Z,7.45
2019-03-25T13:00:34.380Z,9.28
2019-03-25T13:01:38.050Z,9.95
2019-03-25T13:02:41.691Z,8.45
2019-03-25T13:03:45.331Z,11.65
2019-03-25T13:04:48.963Z,9.55
2019-03-25T13:05:52.588Z,8.10
2019-03-25T13:06:56.255Z,8.00
2019-03-25T13:07:59.887Z,8.38
2019-03-25T13:09:04.289Z,10.00
2019-03-25T13:10:08.018Z,6.92
2019-03-25T13:11:11.707Z,6.72
2019-03-25T13:12:15.375Z,11.30
2019-03-25T13:13:18.999Z,8.58
2019-03-25T13:14:22.641Z,14.85
2019-03-25T13:15:26.270Z,8.98
2019-03-25T13:16:30.283Z,12.15
2019-03-25T13:17:33.924Z,7.58
2019-03-25T13:18:37.484Z,9.68
2019-03-25T13:19:41.118Z,10.35
2019-03-25T13:20:44.750Z,9.35
2019-03-25T13:21:48.370Z,7.97
2019-03-25T13:22:52.046Z,7.20
2019-03-25T13:23:55.670Z,9.45
2019-03-25T13:24:59.309Z,8.45
2019-03-25T13:26:03.199Z,7.40
2019-03-25T13:27:06.831Z,9.93
2019-03-25T13:28:10.505Z,9.33
2019-03-25T13:29:14.140Z,11.68
2019-03-25T13:30:17.879Z,9.65
2019-03-25T13:31:21.924Z,8.23
2019-03-25T13:32:25.549Z,6.78
2019-03-25T13:33:29.522Z,7.55
2019-03-25T13:34:33.281Z,7.55
2019-03-25T13:35:36.973Z,8.28
2019-03-25T13:36:40.602Z,10.48
2019-03-25T13:37:44.227Z,7.87
2019-03-25T13:38:47.869Z,8.03
2019-03-25T13:39:51.503Z,10.95
2019-03-25T13:40:55.136Z,10.20
2019-03-25T13:42:01.747Z,12.60
2019-03-25T13:43:05.686Z,10.13
2019-03-25T13:44:09.362Z,8.85
2019-03-25T13:45:13.063Z,7.83
2019-03-25T13:46:16.694Z,7.90
2019-03-25T13:47:20.321Z,8.93
2019-03-25T13:48:24.296Z,10.58
2019-03-25T13:49:27.970Z,11.20
2019-03-25T13:50:31.606Z,7.22